Revere, PA (18953)

10:56 PM EST on December 08, 2016 (GMT -0500)
Traugers Crossing Rd | | Change Station

Elev 550 ft 40.53 °N, 75.21 °W | Updated 46 seconds ago

Partly Cloudy
Partly Cloudy
29.9 °F
Feels Like 24 °F
N
6.0
Wind Variable Wind from NW
Gusts 8.0 mph

Today
High -- | Low -- °F
--% Chance of Precip.
Yesterday
High -- | Low -- °F
Precip. -- in
Pressure 30.06 in
Visibility 10.0 miles
Clouds Scattered Clouds 6000 ft
Windchill 24 °F
Dew Point 12 °F
Humidity 47%
Rainfall 0.00 in
Snow Depth Not available.
7:11 AM 4:33 PM
Waxing Gibbous, 70% visible
METAR KUKT 090335Z AUTO 28008G16KT 10SM SCT060 M01/M10 A3006 RMK AO1
Pressure 30.06 in
Visibility 10.0 miles
Clouds Scattered Clouds 6000 ft
Windchill 24 °F
Dew Point 12 °F
Humidity 47%
Rainfall 0.00 in
Snow Depth Not available.
7:11 AM 4:33 PM
Waxing Gibbous, 70% visible
METAR KUKT 090335Z AUTO 28008G16KT 10SM SCT060 M01/M10 A3006 RMK AO1

10-Day Weather Forecast

Almanac

Astronomy

Dec. 08, 2016 Rise Set
Actual Time
Civil Twilight
Nautical Twilight
Astronomical Twilight
Moon
Length of Visible Light
Length of Day
Tomorrow will be .
, % of the Moon is Illuminated

Today's Extremes

State Highs State Lows

Community

WunderPhotos

Upload Photos

1,956,370 photos uploaded!

WunderBlog® & News

Nearby

Air Quality

  Air Quality AQ Index Pollutant
Not available.

Snow Depth

Station Depth Elevation

Earthquake Activity

City Distance Mag. Time & Date
Minimum magnitude displayed is 2.5.

Coastal Water Temperatures

Place Temperature

Stations

Nearby Weather Stations

Station Location Temp. Windchill Dew Point Humidity Wind Precip. Elev Updated Type
                   

Watches & Warnings

There are currently no watches in effect.